17 de maio de 2022

Tempo Código Clima Temp. Visão Nuvens Vento METAR/SPECI
15:25
V
22 °C 10 km+ - 130°   130° 5 kt METAR EHLE 171325Z AUTO 13005KT 060V180 9999 NSC 22/15 Q1020 NOSIG
14:55
V
22 °C 10 km+ - 140°   140° 5 kt METAR EHLE 171255Z AUTO 14005KT 090V220 9999 NSC 22/15 Q1020 NOSIG
14:25
V
21 °C 10 km+ - 110°   110° 5 kt METAR EHLE 171225Z AUTO 11005KT 040V170 9999 FEW027 21/15 Q1020 NOSIG
13:55
V
20 °C 10 km+ - 110°   110° 4 kt METAR EHLE 171155Z AUTO 11004KT 030V180 9999 NSC 20/15 Q1020 NOSIG
13:25
V
19 °C 10 km+ - 110°   110° 3 kt METAR EHLE 171125Z AUTO 11003KT 060V160 9999 SCT046 19/15 Q1021 NOSIG
12:55
V
17 °C 10 km+ 4.600 ft 130°   130° 3 kt METAR EHLE 171055Z AUTO 13003KT 090V170 9999 BKN046 17/15 Q1021 NOSIG
12:25
V
15 °C 10 km+ 4.300 ft Var   Var 1 kt METAR EHLE 171025Z AUTO VRB01KT 9999 OVC043 15/13 Q1021 NOSIG
11:55
M
15 °C 7 km 4.000 ft Var   Var 2 kt METAR EHLE 170955Z AUTO VRB02KT 7000 -SHRA +DZ FEW036 BKN040 OVC045 15/13 Q1021 NOSIG
11:25
M
16 °C 6 km 4.100 ft 230°   230° 5 kt METAR EHLE 170925Z AUTO 23005KT 190V280 6000 -RADZ BKN041 OVC045 16/12 Q1021 NOSIG
10:55
V
17 °C 10 km+ 3.600 ft Var   Var 2 kt METAR EHLE 170855Z AUTO VRB02KT 9999 BKN036 BKN041 OVC047 17/12 Q1021 NOSIG
10:25
V
17 °C 10 km+ 3.500 ft Var   Var 1 kt METAR EHLE 170825Z AUTO VRB01KT 9999 OVC035 17/12 Q1021 NOSIG
09:55
V
17 °C 10 km+ - 260°   260° 5 kt METAR EHLE 170755Z AUTO 26005KT 220V290 9999 FEW038 17/13 Q1021 NOSIG
09:25
V
16 °C 10 km+ - 270°   270° 5 kt METAR EHLE 170725Z AUTO 27005KT 240V300 9999 NSC 16/12 Q1020 NOSIG
08:55
V
17 °C 10 km+ - 250°   250° 6 kt METAR EHLE 170655Z AUTO 25006KT 230V290 9999 NSC 17/13 Q1020 NOSIG
08:25
V
16 °C 10 km+ - 240°   240° 6 kt METAR EHLE 170625Z AUTO 24006KT 9999 NSC 16/13 Q1020 NOSIG
07:55
V
15 °C 10 km+ - 230°   230° 5 kt METAR EHLE 170555Z AUTO 23005KT 9999 NSC 15/13 Q1020 NOSIG
07:25
V
15 °C 10 km+ - 230°   230° 5 kt METAR EHLE 170525Z AUTO 23005KT 9999 NSC 15/13 Q1020 NOSIG
06:55
V
14 °C 10 km+ - 240°   240° 4 kt METAR EHLE 170455Z AUTO 24004KT 9999 NSC 14/13 Q1019 NOSIG
06:25
V
14 °C 10 km+ - 230°   230° 5 kt METAR EHLE 170425Z AUTO 23005KT 9999 NSC 14/12 Q1019
05:55
V
12 °C 10 km+ - 240°   240° 5 kt METAR EHLE 170355Z AUTO 24005KT 9999 NSC 12/11 Q1019
05:25
V
12 °C 10 km+ - 220°   220° 4 kt METAR EHLE 170325Z AUTO 22004KT 9999 NSC 12/11 Q1019
04:55
V
12 °C 10 km+ - 210°   210° 4 kt METAR EHLE 170255Z AUTO 21004KT 9999 NSC 12/11 Q1019
04:25
V
12 °C 10 km+ - 220°   220° 4 kt METAR EHLE 170225Z AUTO 22004KT 9999 NSC 12/11 Q1019
03:55
V
12 °C 10 km+ - 220°   220° 3 kt METAR EHLE 170155Z AUTO 22003KT 9999 NCD 12/11 Q1019
03:25
V
13 °C 10 km+ - 230°   230° 4 kt METAR EHLE 170125Z AUTO 23004KT 9999 NSC 13/12 Q1019
02:55
V
13 °C 10 km+ - 230°   230° 5 kt METAR EHLE 170055Z AUTO 23005KT 9999 NSC 13/12 Q1019
02:25
V
13 °C 10 km+ - 220°   220° 4 kt METAR EHLE 170025Z AUTO 22004KT 9999 NSC 13/11 Q1019
01:55
V
13 °C 10 km+ - 220°   220° 3 kt METAR EHLE 162355Z AUTO 22003KT 9999 NSC 13/11 Q1019
01:25
V
14 °C 10 km+ - 220°   220° 4 kt METAR EHLE 162325Z AUTO 22004KT 9999 NSC 14/12 Q1019
00:55
V
14 °C 10 km+ - 210°   210° 5 kt METAR EHLE 162255Z AUTO 21005KT 9999 NSC 14/12 Q1019
00:25
V
14 °C 10 km+ - 210°   210° 5 kt METAR EHLE 162225Z AUTO 21005KT 9999 NCD 14/12 Q1019

16 de maio de 2022

Tempo Código Clima Temp. Visão Nuvens Vento METAR/SPECI
23:55
V
15 °C 10 km+ - 210°   210° 5 kt METAR EHLE 162155Z AUTO 21005KT 9999 NCD 15/12 Q1018
23:25
V
16 °C 10 km+ 3.600 ft 220°   220° 5 kt METAR EHLE 162125Z AUTO 22005KT 9999 BKN036 BKN042 16/13 Q1018
22:55
V
16 °C 10 km+ 3.700 ft 220°   220° 6 kt METAR EHLE 162055Z AUTO 22006KT 9999 BKN037 16/13 Q1018
22:25
V
17 °C 10 km+ 3.400 ft 250°   250° 6 kt METAR EHLE 162025Z AUTO 25006KT 9999 BKN034 OVC043 17/13 Q1018
21:55
V
17 °C 10 km+ 4.500 ft 250°   250° 5 kt METAR EHLE 161955Z AUTO 25005KT 9999 FEW040 OVC045 17/13 Q1018
21:25
V
18 °C 10 km+ 4.200 ft 250°   250° 6 kt METAR EHLE 161925Z AUTO 25006KT 9999 OVC042 18/13 Q1018 NOSIG
20:55
V
18 °C 10 km+ 4.000 ft 230°   230° 7 kt METAR EHLE 161855Z AUTO 23007KT 9999 FEW027 OVC040 18/13 Q1017 NOSIG
20:25
V
19 °C 10 km+ 3.600 ft 250°   250° 10 kt METAR EHLE 161825Z AUTO 25010KT 220V280 9999 FEW027 OVC036 19/13 Q1017 NOSIG
19:55
V
19 °C 10 km+ 3.800 ft 250°   250° 11 kt METAR EHLE 161755Z AUTO 25011KT 220V290 9999 FEW025 SCT034 OVC038 19/13 Q1017 NOSIG
19:25
V
19 °C 10 km+ 3.200 ft 260°   260° 14 kt METAR EHLE 161725Z AUTO 26014KT 230V300 9999 SCT028 OVC032 19/13 Q1017 NOSIG
18:55
V
19 °C 10 km+ 3.100 ft 260°   260° 14 kt METAR EHLE 161655Z AUTO 26014KT 230V290 9999 SCT026 BKN031 19/13 Q1016 NOSIG
18:25
M
19 °C 10 km+ 2.700 ft 250°   250° 14 kt METAR EHLE 161625Z AUTO 25014KT 220V290 9999 SCT021 BKN027 BKN032 19/13 Q1017 NOSIG
17:55
M
19 °C 10 km+ 2.100 ft 260°   260° 11 kt METAR EHLE 161555Z AUTO 26011KT 230V290 9999 OVC021 19/14 Q1016 NOSIG
17:25
M
19 °C 10 km+ 2.400 ft 260°   260° 16 kt METAR EHLE 161525Z AUTO 26016KT 9999 FEW021 BKN024 OVC028 19/14 Q1016 NOSIG
16:55
M
19 °C 10 km+ 1.600 ft 250°   250° 16 kt METAR EHLE 161455Z AUTO 25016KT 210V280 9999 BKN016 OVC020 19/14 Q1016 NOSIG
16:25
M
18 °C 10 km+ 1.400 ft 240°   240° 13 kt METAR EHLE 161425Z AUTO 24013KT 210V270 9999 OVC014 18/15 Q1016 BECMG FEW016 BKN020
15:55
M
18 °C 10 km+ 1.100 ft 260°   260° 16 kt METAR EHLE 161355Z AUTO 26016KT 240V300 9999 OVC011 18/15 Q1016 TEMPO BKN015
15:25
V
20 °C 10 km+ - 240°   240° 15 kt METAR EHLE 161325Z AUTO 24015KT 210V270 9999 NSC 20/16 Q1015 NOSIG
14:55
V
20 °C 10 km+ - 240°   240° 12 kt METAR EHLE 161255Z AUTO 24012KT 9999 -RA NSC 20/16 Q1015 TEMPO 6000 SHRA SCT050CB
14:25
V
22 °C 10 km+ - 280°   280° 8 kt METAR EHLE 161225Z AUTO 28008KT 240V310 9999 -RA FEW041 22/15 Q1014 TEMPO 6000 SHRA SCT050CB
13:55
V
22 °C 10 km+ - 280°   280° 11 kt METAR EHLE 161155Z AUTO 28011KT 240V300 9999 NSC 22/14 Q1014 TEMPO 6000 SHRA SCT050CB
13:25
V
23 °C 10 km+ - 250°   250° 9 kt METAR EHLE 161125Z AUTO 25009KT 220V290 9999 NSC 23/13 Q1014 TEMPO FM1200 6000 SHRA SCT050CB
12:55
V
23 °C 10 km+ - 230°   230° 7 kt METAR EHLE 161055Z AUTO 23007KT 200V260 9999 NSC 23/14 Q1014 TEMPO FM1200 6000 SHRA SCT050CB
12:25
V
23 °C 10 km+ - 200°   200° 5 kt METAR EHLE 161025Z AUTO 20005KT 140V300 9999 NSC 23/14 Q1014 NOSIG
11:55
V
21 °C 10 km+ - 200°   200° 6 kt METAR EHLE 160955Z AUTO 20006KT 160V230 9999 NSC 21/14 Q1013 NOSIG
11:25
V
21 °C 10 km+ - 180°   180° 8 kt METAR EHLE 160925Z AUTO 18008KT 150V230 9999 NSC 21/14 Q1013 NOSIG
10:55
V
19 °C 10 km+ - 150°   150° 6 kt METAR EHLE 160855Z AUTO 15006KT 120V180 9999 NSC 19/12 Q1013 NOSIG
10:25
V
20 °C 10 km+ - 160°   160° 8 kt METAR EHLE 160825Z AUTO 16008KT 130V190 9999 NSC 20/11 Q1013 NOSIG
09:55
V
20 °C 10 km+ - 160°   160° 8 kt METAR EHLE 160755Z AUTO 16008KT 130V190 9999 NSC 20/11 Q1013 TEMPO 7000 -SHRA FEW080CB
09:25
V
20 °C 10 km+ - 150°   150° 8 kt METAR EHLE 160725Z AUTO 15008KT 100V190 9999 NSC 20/11 Q1013 TEMPO 7000 -SHRA FEW080CB
08:55
V
19 °C 10 km+ - 110°   110° 7 kt METAR EHLE 160655Z AUTO 11007KT 080V150 9999 NSC 19/11 Q1012 NOSIG
08:25
V
18 °C 10 km+ - 110°   110° 8 kt METAR EHLE 160625Z AUTO 11008KT 080V140 9999 NSC 18/10 Q1012 NOSIG
07:55
V
16 °C 10 km+ - 100°   100° 6 kt METAR EHLE 160555Z AUTO 10006KT 050V130 9999 NSC 16/10 Q1013 NOSIG
07:25
V
15 °C 10 km+ - 100°   100° 6 kt METAR EHLE 160525Z AUTO 10006KT 060V130 9999 NSC 15/10 Q1013 NOSIG
06:55
V
14 °C 10 km+ - 090°   090° 5 kt METAR EHLE 160455Z AUTO 09005KT 050V130 9999 NCD 14/09 Q1013 NOSIG
06:25
V
13 °C 10 km+ - 100°   100° 7 kt METAR EHLE 160425Z AUTO 10007KT 060V120 9999 NCD 13/09 Q1013
05:55
V
13 °C 10 km+ - 080°   080° 4 kt METAR EHLE 160355Z AUTO 08004KT 050V120 9999 NCD 13/08 Q1013
05:25
V
13 °C 10 km+ - 080°   080° 4 kt METAR EHLE 160325Z AUTO 08004KT 050V110 9999 NSC 13/08 Q1013
04:55
V
12 °C 10 km+ - 070°   070° 5 kt METAR EHLE 160255Z AUTO 07005KT 9999 NSC 12/08 Q1013
04:25
V
13 °C 10 km+ - 060°   060° 5 kt METAR EHLE 160225Z AUTO 06005KT 9999 NCD 13/08 Q1013
03:55
V
12 °C 10 km+ - 060°   060° 5 kt METAR EHLE 160155Z AUTO 06005KT 9999 NSC 12/08 Q1014
03:25
V
13 °C 10 km+ - 060°   060° 4 kt METAR EHLE 160125Z AUTO 06004KT 9999 NSC 13/08 Q1014
02:55
V
13 °C 10 km+ - 050°   050° 5 kt METAR EHLE 160055Z AUTO 05005KT 9999 NSC 13/08 Q1014
02:25
V
14 °C 10 km+ - 060°   060° 6 kt METAR EHLE 160025Z AUTO 06006KT 9999 NSC 14/08 Q1014
01:55
V
15 °C 10 km+ - 060°   060° 7 kt METAR EHLE 152355Z AUTO 06007KT 030V090 9999 NSC 15/08 Q1015
01:25
V
16 °C 10 km+ - 060°   060° 7 kt METAR EHLE 152325Z AUTO 06007KT 9999 NSC 16/08 Q1015
00:55
V
16 °C 10 km+ - 060°   060° 6 kt METAR EHLE 152255Z AUTO 06006KT 030V090 9999 NSC 16/08 Q1015
00:25
V
16 °C 10 km+ - 070°   070° 7 kt METAR EHLE 152225Z AUTO 07007KT 040V100 9999 NSC 16/08 Q1016

15 de maio de 2022

Tempo Código Clima Temp. Visão Nuvens Vento METAR/SPECI
23:55
V
17 °C 10 km+ - 070°   070° 6 kt METAR EHLE 152155Z AUTO 07006KT 9999 NSC 17/08 Q1016
23:25
V
18 °C 10 km+ - 070°   070° 6 kt METAR EHLE 152125Z AUTO 07006KT 040V110 9999 NSC 18/08 Q1016
22:55
V
17 °C 10 km+ - 060°   060° 6 kt METAR EHLE 152055Z AUTO 06006KT 9999 NSC 17/08 Q1016
22:25
V
18 °C 10 km+ - 060°   060° 6 kt METAR EHLE 152025Z AUTO 06006KT 9999 NSC 18/08 Q1015
21:55
V
19 °C 10 km+ - 070°   070° 7 kt METAR EHLE 151955Z AUTO 07007KT 050V110 9999 NSC 19/08 Q1015 NOSIG
21:25
V
20 °C 10 km+ - 070°   070° 7 kt METAR EHLE 151925Z AUTO 07007KT 9999 NSC 20/08 Q1015 NOSIG
20:55
V
21 °C 10 km+ - 070°   070° 7 kt METAR EHLE 151855Z AUTO 07007KT 9999 NSC 21/08 Q1015 NOSIG
20:25
V
22 °C 10 km+ - 090°   090° 6 kt METAR EHLE 151825Z AUTO 09006KT 050V120 9999 NSC 22/08 Q1015 NOSIG
19:55
V
23 °C 10 km+ - 110°   110° 7 kt METAR EHLE 151755Z AUTO 11007KT 070V140 9999 NCD 23/08 Q1016 NOSIG
19:25
V
24 °C 10 km+ - 090°   090° 9 kt METAR EHLE 151725Z AUTO 09009KT 060V120 9999 NSC 24/07 Q1016 NOSIG
18:55
V
24 °C 10 km+ - 110°   110° 7 kt METAR EHLE 151655Z AUTO 11007KT 070V150 9999 NSC 24/07 Q1016 NOSIG
18:25
V
24 °C 10 km+ - 100°   100° 8 kt METAR EHLE 151625Z AUTO 10008KT 050V140 9999 NSC 24/06 Q1016 NOSIG
17:55
V
24 °C 10 km+ - 100°   100° 8 kt METAR EHLE 151555Z AUTO 10008KT 050V140 9999 NSC 24/06 Q1017 NOSIG
17:25
V
25 °C 10 km+ - 130°   130° 9 kt METAR EHLE 151525Z AUTO 13009KT 080V170 9999 NSC 25/07 Q1017 NOSIG
16:55
V
24 °C 10 km+ - 110°   110° 8 kt METAR EHLE 151455Z AUTO 11008KT 070V160 9999 NCD 24/06 Q1017 NOSIG
16:25
V
24 °C 10 km+ - 120°   120° 9 kt METAR EHLE 151425Z AUTO 12009KT 080V180 9999 NSC 24/08 Q1017 NOSIG
15:55
V
24 °C 10 km+ - 090°   090° 8 kt METAR EHLE 151355Z AUTO 09008KT 030V160 9999 NSC 24/07 Q1018 NOSIG
Dados mais antigos

Baixe nosso aplicativo

Fácil acesso a todas as condições meteorológicas da aviação no seu celular e no seu tablet.
Com muitos recursos não disponíveis no site, como suporte offline e uma lista pessoal de aeroportos.